Time;durP1;ratioP1;P1;durP2;ratioP2;P2;SDS_P1;SDS_P2;PMS_P1;PMS_P2;Temp;Humidity;BMP_temperature;BMP_pressure;BME280_temperature;BME280_humidity;BME280_pressure;Samples;Min_cycle;Max_cycle;Signal;HPM_P1;HPM_P2
2021/11/09 00:02:29;;;;;;;18.45;5.92;;;;;;;6.56;83.19;101008.45;2205408;79;20982;-80
2021/11/09 00:05:31;;;;;;;13.93;5.78;;;;;;;6.55;83.15;101012.02;2203631;79;20987;-78
2021/11/09 00:08:56;;;;;;;21.50;6.22;;;;;;;6.54;83.14;101010.84;2202805;79;20994;-79
2021/11/09 00:11:37;;;;;;;22.85;6.10;;;;;;;6.54;83.10;101008.20;2194068;79;21178;-78
2021/11/09 00:14:38;;;;;;;16.77;5.87;;;;;;;6.53;83.14;101011.29;2200159;78;21303;-81
2021/11/09 00:17:41;;;;;;;17.98;6.33;;;;;;;6.53;83.08;101010.45;2153344;81;21002;-79
2021/11/09 00:20:43;;;;;;;18.27;6.28;;;;;;;6.51;83.12;101012.74;2157545;80;21066;-78
2021/11/09 00:23:46;;;;;;;13.78;5.97;;;;;;;6.55;83.13;101015.97;2161176;80;20986;-79
2021/11/09 00:26:47;;;;;;;16.23;6.55;;;;;;;6.56;83.11;101016.36;2146711;81;21034;-76
2021/11/09 00:29:50;;;;;;;16.87;6.37;;;;;;;6.58;83.07;101022.33;2153729;81;21083;-81
2021/11/09 00:32:52;;;;;;;18.32;6.35;;;;;;;6.56;82.95;101021.62;2137476;81;21023;-77
2021/11/09 00:35:53;;;;;;;18.15;6.03;;;;;;;6.55;83.00;101031.80;2119534;81;21085;-80
2021/11/09 00:38:56;;;;;;;15.65;5.75;;;;;;;6.55;83.01;101027.84;2124102;82;21096;-77
2021/11/09 00:41:57;;;;;;;18.00;6.17;;;;;;;6.55;82.96;101027.84;2137602;82;21030;-77
2021/11/09 00:44:59;;;;;;;15.48;5.65;;;;;;;6.57;83.05;101031.20;2133987;82;20944;-80
2021/11/09 00:48:01;;;;;;;16.45;6.75;;;;;;;6.56;82.93;101029.53;2143858;81;21028;-78
2021/11/09 00:51:03;;;;;;;15.80;5.92;;;;;;;6.55;82.99;101037.06;2155101;81;21037;-78
2021/11/09 00:54:04;;;;;;;19.52;6.70;;;;;;;6.51;83.03;101033.00;2149706;81;21023;-78
2021/11/09 00:57:06;;;;;;;18.20;6.50;;;;;;;6.46;83.05;101035.98;2154945;81;20980;-80
2021/11/09 01:00:13;;;;;;;18.62;6.12;;;;;;;6.44;83.13;101031.78;2148555;81;20958;-78
2021/11/09 01:03:15;;;;;;;14.40;5.78;;;;;;;6.44;83.18;101041.01;2151755;81;21579;-77
2021/11/09 01:06:16;;;;;;;20.37;6.60;;;;;;;6.41;83.23;101036.80;2152682;81;21025;-78
2021/11/09 01:09:18;;;;;;;13.68;6.12;;;;;;;6.42;83.27;101042.91;2155817;81;21041;-78
2021/11/09 01:12:20;;;;;;;17.80;6.25;;;;;;;6.41;83.35;101041.25;2153810;81;20982;-77
2021/11/09 01:15:22;;;;;;;13.68;6.60;;;;;;;6.41;83.45;101043.87;2150995;81;20952;-77
2021/11/09 01:18:29;;;;;;;18.52;6.28;;;;;;;6.38;83.57;101051.55;2151432;81;21030;-77
2021/11/09 01:21:33;;;;;;;19.07;6.58;;;;;;;6.36;83.68;101052.61;2155739;81;21100;-77
2021/11/09 01:24:34;;;;;;;17.62;5.90;;;;;;;6.36;83.80;101056.56;2153474;81;20975;-79
2021/11/09 01:27:36;;;;;;;16.00;6.17;;;;;;;6.35;83.90;101062.33;2152292;81;21061;-80
2021/11/09 01:30:38;;;;;;;15.18;5.78;;;;;;;6.35;84.01;101058.86;2153711;81;20998;-79
2021/11/09 01:33:40;;;;;;;13.53;5.40;;;;;;;6.37;84.09;101059.59;2150824;81;21049;-77
2021/11/09 01:36:42;;;;;;;15.98;6.15;;;;;;;6.39;84.08;101061.16;2119134;82;21034;-79
2021/11/09 01:39:43;;;;;;;17.23;6.60;;;;;;;6.42;84.16;101062.69;2155370;80;21002;-78
2021/11/09 01:42:45;;;;;;;14.05;5.15;;;;;;;6.39;84.25;101064.23;2157101;81;20992;-79
2021/11/09 01:45:48;;;;;;;13.60;5.65;;;;;;;6.39;84.27;101065.56;2153194;81;21049;-81
2021/11/09 01:48:50;;;;;;;12.25;5.87;;;;;;;6.41;84.37;101072.39;2148405;81;20962;-78
2021/11/09 01:51:52;;;;;;;11.97;5.53;;;;;;;6.41;84.34;101072.88;2155440;82;21065;-78
2021/11/09 01:54:53;;;;;;;17.32;6.20;;;;;;;6.40;84.58;101069.89;2120116;82;21494;-79
2021/11/09 01:57:57;;;;;;;15.60;6.42;;;;;;;6.37;84.48;101078.04;2153665;81;20971;-79
2021/11/09 02:01:06;;;;;;;16.12;5.70;;;;;;;6.37;84.52;101078.88;2155607;81;22071;-78
2021/11/09 02:04:10;;;;;;;14.80;5.90;;;;;;;6.40;84.65;101084.39;2155452;81;21424;-79
2021/11/09 02:07:11;;;;;;;13.88;6.12;;;;;;;6.36;84.56;101083.77;2150727;81;21049;-78
2021/11/09 02:10:15;;;;;;;13.22;5.17;;;;;;;6.41;84.65;101080.79;2152637;81;21502;-77
2021/11/09 02:13:18;;;;;;;12.90;5.95;;;;;;;6.42;84.72;101083.33;2153678;81;21041;-79
2021/11/09 02:16:20;;;;;;;11.97;5.70;;;;;;;6.42;84.59;101088.59;2152763;82;21010;-79
2021/11/09 02:19:22;;;;;;;13.95;6.70;;;;;;;6.42;84.68;101081.14;2153146;81;21056;-79
2021/11/09 02:22:26;;;;;;;16.48;6.35;;;;;;;6.43;84.69;101088.95;2146603;81;21049;-79
2021/11/09 02:25:31;;;;;;;11.60;5.85;;;;;;;6.44;84.70;101089.78;2152332;82;21528;-78
2021/11/09 02:28:32;;;;;;;15.83;6.55;;;;;;;6.41;84.68;101088.22;2151342;81;21081;-80
2021/11/09 02:31:34;;;;;;;16.05;7.17;;;;;;;6.40;84.73;101094.94;2151120;81;21050;-79
2021/11/09 02:34:35;;;;;;;16.85;7.08;;;;;;;6.37;84.80;101101.77;2154116;81;21055;-78
2021/11/09 02:37:37;;;;;;;15.10;6.37;;;;;;;6.36;84.84;101104.02;2117930;82;21113;-80
2021/11/09 02:40:40;;;;;;;18.60;6.22;;;;;;;6.35;84.92;101111.58;2135571;82;21089;-79
2021/11/09 02:43:42;;;;;;;17.15;6.60;;;;;;;6.35;84.91;101111.58;2145504;81;21001;-78
2021/11/09 02:47:08;;;;;;;13.62;7.25;;;;;;;6.35;84.94;101118.16;2150725;82;20991;-78
2021/11/09 02:53:04;;;;;;;20.02;6.30;;;;;;;6.38;84.96;101117.45;2205826;79;20995;-80
2021/11/09 02:56:04;;;;;;;14.80;7.10;;;;;;;6.41;85.04;101116.38;2196200;78;21022;-79
2021/11/09 02:59:15;;;;;;;14.07;7.22;;;;;;;6.40;84.96;101123.45;2199656;79;21479;-81
2021/11/09 03:05:20;;;;;;;12.30;6.35;;;;;;;6.38;85.04;101116.61;2193723;79;20984;-79
2021/11/09 03:08:33;;;;;;;15.23;6.85;;;;;;;6.38;85.11;101121.89;2157106;81;21066;-80
2021/11/09 03:11:33;;;;;;;13.58;6.40;;;;;;;6.39;85.13;101118.28;2115453;82;21085;-80
2021/11/09 03:14:34;;;;;;;16.15;6.85;;;;;;;6.39;85.14;101122.23;2158068;81;21561;-82
2021/11/09 03:17:47;;;;;;;18.25;6.65;;;;;;;6.39;85.14;101124.42;2158717;81;21002;-80
2021/11/09 03:46:53;;;;;;;16.40;6.78;;;;;;;6.44;85.18;101164.92;2154747;81;21479;-80
2021/11/09 03:49:58;;;;;;;15.40;6.30;;;;;;;6.44;85.18;101164.44;2147027;81;21057;-78
2021/11/09 03:53:07;;;;;;;14.15;6.42;;;;;;;6.46;85.23;101162.53;2113752;82;21072;-78
2021/11/09 03:56:26;;;;;;;13.62;6.70;;;;;;;6.45;85.19;101163.98;2147661;81;21103;-81
2021/11/09 03:59:14;;;;;;;18.60;6.97;;;;;;;6.42;85.26;101169.01;2124735;81;21027;-78
2021/11/09 04:05:20;;;;;;;13.80;7.45;;;;;;;6.39;85.39;101182.87;2132648;81;21022;-77
2021/11/09 04:08:37;;;;;;;19.65;7.78;;;;;;;6.40;85.39;101184.09;2118650;82;21033;-79
2021/11/09 04:11:46;;;;;;;16.80;8.30;;;;;;;6.41;85.43;101187.56;2125475;82;21049;-79
2021/11/09 04:17:57;;;;;;;15.10;7.47;;;;;;;6.40;85.45;101199.91;2076040;82;21053;-77
2021/11/09 04:24:21;;;;;;;19.93;8.97;;;;;;;6.45;85.53;101204.85;2114372;82;21128;-80
2021/11/09 04:30:30;;;;;;;23.57;10.00;;;;;;;6.50;85.58;101207.52;2156337;81;21618;-80
2021/11/09 05:03:04;;;;;;;19.67;10.03;;;;;;;6.56;85.81;101241.81;2155401;82;21015;-81
2021/11/09 05:09:22;;;;;;;;;;;;;;;6.58;85.78;101251.75;2138507;82;21036;-81
2021/11/09 05:12:21;;;;;;;23.85;11.40;;;;;;;6.66;85.91;101254.66;2139291;82;20175;-80
2021/11/09 05:15:23;;;;;;;21.25;11.00;;;;;;;6.65;85.72;101254.31;2136487;82;21042;-80
2021/11/09 05:18:25;;;;;;;22.87;10.65;;;;;;;6.68;85.66;101263.31;2141002;82;21029;-80
2021/11/09 05:21:27;;;;;;;29.85;10.93;;;;;;;6.72;85.65;101266.56;2135917;82;21098;-76
2021/11/09 05:24:29;;;;;;;23.00;10.63;;;;;;;6.73;85.58;101270.41;2123803;82;21073;-77
2021/11/09 05:27:31;;;;;;;24.00;10.37;;;;;;;6.80;85.62;101273.91;2154843;81;21211;-75
2021/11/09 05:30:33;;;;;;;19.27;9.88;;;;;;;6.78;85.46;101270.53;2155158;81;21620;-78
2021/11/09 05:33:34;;;;;;;24.25;10.28;;;;;;;6.76;85.39;101282.54;2112054;82;21037;-75
2021/11/09 05:36:38;;;;;;;26.55;11.50;;;;;;;6.84;85.59;101291.18;2123629;82;21072;-76
2021/11/09 05:39:49;;;;;;;25.85;11.88;;;;;;;6.89;85.59;101288.56;2155311;81;20987;-75
2021/11/09 05:42:49;;;;;;;21.10;10.70;;;;;;;6.94;85.57;101295.66;2156374;81;20990;-74
2021/11/09 05:45:51;;;;;;;26.57;12.50;;;;;;;6.95;85.38;101305.73;2151007;81;21042;-77
2021/11/09 05:48:52;;;;;;;23.45;11.63;;;;;;;6.95;85.32;101314.52;2149161;81;20991;-75
2021/11/09 05:51:54;;;;;;;24.32;11.63;;;;;;;6.94;85.22;101313.30;2121152;82;21060;-77
2021/11/09 05:54:55;;;;;;;25.70;11.30;;;;;;;6.91;85.26;101318.32;2195658;79;20987;-76
2021/11/09 05:57:57;;;;;;;26.05;11.22;;;;;;;6.97;85.32;101323.62;2203187;79;21062;-74
2021/11/09 06:00:58;;;;;;;21.15;10.43;;;;;;;7.03;85.50;101324.97;2202711;78;21006;-74
2021/11/09 06:04:00;;;;;;;26.27;13.03;;;;;;;7.03;85.27;101332.40;2202152;78;21036;-76
2021/11/09 06:07:03;;;;;;;24.12;13.58;;;;;;;7.07;85.29;101335.19;2201014;79;21008;-76
2021/11/09 06:10:06;;;;;;;31.02;12.73;;;;;;;7.10;85.21;101346.84;2200664;79;20967;-76
2021/11/09 06:13:08;;;;;;;28.35;12.98;;;;;;;7.15;85.15;101355.71;2118813;82;21040;-77
2021/11/09 06:16:10;;;;;;;25.27;12.40;;;;;;;7.15;85.10;101368.45;2205364;79;21050;-79
2021/11/09 06:19:11;;;;;;;28.65;12.85;;;;;;;7.16;85.08;101374.58;2201628;78;21506;-77
2021/11/09 06:22:13;;;;;;;25.32;14.20;;;;;;;7.18;84.99;101378.78;2196690;79;21008;-75
2021/11/09 06:25:15;;;;;;;32.83;13.88;;;;;;;7.17;84.95;101386.32;2199265;79;21358;-75
2021/11/09 06:28:20;;;;;;;29.70;13.15;;;;;;;7.21;85.01;101386.95;2197187;79;21026;-77
2021/11/09 06:31:22;;;;;;;37.60;14.68;;;;;;;7.28;85.08;101389.97;2202746;79;21493;-76
2021/11/09 06:34:23;;;;;;;35.38;14.00;;;;;;;7.32;84.99;101390.09;2202247;79;21560;-74
2021/11/09 06:37:25;;;;;;;32.88;13.75;;;;;;;7.32;84.84;101398.02;2118831;81;20983;-76
2021/11/09 06:40:27;;;;;;;37.85;14.00;;;;;;;7.32;84.75;101396.24;2160265;81;21002;-76
2021/11/09 06:43:28;;;;;;;33.45;15.35;;;;;;;7.34;84.76;101403.55;2134719;82;21023;-76
2021/11/09 06:46:30;;;;;;;33.45;13.30;;;;;;;7.35;84.71;101414.49;2122996;82;21014;-77
2021/11/09 06:49:31;;;;;;;30.00;13.15;;;;;;;7.39;84.73;101421.70;2137622;82;21497;-77
2021/11/09 06:52:33;;;;;;;25.85;12.70;;;;;;;7.38;84.62;101427.95;2153869;81;21050;-77
2021/11/09 06:55:37;;;;;;;33.85;13.58;;;;;;;7.37;84.71;101435.00;2155683;81;21018;-76
2021/11/09 06:58:38;;;;;;;27.77;11.88;;;;;;;7.39;84.61;101440.19;2136506;82;21038;-75
2021/11/09 07:01:39;;;;;;;31.57;12.93;;;;;;;7.36;84.53;101454.94;2126241;82;22281;-74
2021/11/09 07:04:41;;;;;;;34.67;14.90;;;;;;;7.32;84.55;101457.42;2131866;82;21542;-76
2021/11/09 07:07:43;;;;;;;37.13;14.00;;;;;;;7.36;84.73;101469.46;2155047;81;21506;-76
2021/11/09 07:10:44;;;;;;;37.48;14.18;;;;;;;7.38;84.71;101475.48;2153305;82;21056;-76
2021/11/09 07:13:46;;;;;;;39.33;14.30;;;;;;;7.36;84.62;101479.54;2155410;82;21054;-76
2021/11/09 07:16:49;;;;;;;31.60;14.80;;;;;;;7.36;84.67;101479.54;2156468;81;21009;-76
2021/11/09 07:19:52;;;;;;;38.45;15.45;;;;;;;7.35;84.61;101484.47;2152589;81;21074;-77
2021/11/09 07:22:54;;;;;;;32.78;15.15;;;;;;;7.40;84.83;101491.58;2157222;82;21045;-76
2021/11/09 07:25:56;;;;;;;38.75;15.80;;;;;;;7.44;84.76;101493.51;2152634;81;21710;-77
2021/11/09 07:28:58;;;;;;;45.92;16.40;;;;;;;7.44;84.70;101501.43;2156913;82;21129;-75
2021/11/09 07:31:59;;;;;;;37.00;14.05;;;;;;;7.47;84.79;101496.41;2158497;81;21028;-77
2021/11/09 07:35:02;;;;;;;31.68;14.10;;;;;;;7.54;84.77;101506.86;2156503;81;21432;-75
2021/11/09 07:38:04;;;;;;;29.25;13.98;;;;;;;7.56;84.71;101508.44;2157836;81;21037;-77
2021/11/09 07:41:06;;;;;;;32.42;15.30;;;;;;;7.67;84.79;101508.13;2156515;82;21097;-74
2021/11/09 07:44:08;;;;;;;32.30;15.23;;;;;;;7.73;84.74;101506.35;2095818;82;21046;-77
2021/11/09 07:47:10;;;;;;;26.27;13.38;;;;;;;7.81;84.61;101505.30;2146344;81;21027;-78
2021/11/09 07:50:12;;;;;;;29.35;13.85;;;;;;;7.87;84.46;101518.05;2148897;81;20971;-79
2021/11/09 07:53:17;;;;;;;37.40;16.17;;;;;;;7.87;84.33;101532.59;2201658;79;20985;-77
2021/11/09 07:56:21;;;;;;;25.77;14.43;;;;;;;7.93;84.57;101530.80;2203796;78;21602;-77
2021/11/09 07:59:27;;;;;;;24.07;12.95;;;;;;;8.03;84.56;101533.12;2204264;79;21074;-76
2021/11/09 08:02:28;;;;;;;34.40;17.27;;;;;;;8.01;84.11;101534.20;2200391;80;20992;-75
2021/11/09 08:08:56;;;;;;;22.13;12.43;;;;;;;8.11;84.21;101554.16;2074665;81;20990;-78
2021/11/09 08:11:50;;;;;;;24.23;12.05;;;;;;;8.15;84.01;101552.50;2130044;82;21395;-75
2021/11/09 08:14:52;;;;;;;26.87;12.85;;;;;;;8.21;84.07;101552.52;2122661;82;21559;-76
2021/11/09 08:17:54;;;;;;;25.60;12.18;;;;;;;8.23;83.87;101558.05;2133799;81;21034;-75
2021/11/09 08:20:55;;;;;;;24.20;12.78;;;;;;;8.28;83.86;101562.52;2144935;81;21015;-75
2021/11/09 08:23:57;;;;;;;25.45;12.30;;;;;;;8.34;83.88;101561.20;2118843;82;20986;-78
2021/11/09 08:27:04;;;;;;;27.30;12.23;;;;;;;8.38;83.73;101570.58;2150787;81;21062;-76
2021/11/09 08:30:03;;;;;;;23.98;13.50;;;;;;;8.37;83.45;101578.16;2157974;81;21497;-72
2021/11/09 08:33:05;;;;;;;35.13;14.58;;;;;;;8.33;83.41;101579.34;2160835;81;21539;-77
2021/11/09 08:36:10;;;;;;;25.97;14.13;;;;;;;8.33;83.42;101581.98;2159918;81;21030;-75
2021/11/09 08:39:14;;;;;;;25.12;13.13;;;;;;;8.33;83.51;101580.66;2150392;81;21151;-77
2021/11/09 08:45:50;;;;;;;30.08;13.55;;;;;;;8.40;83.43;101589.86;2158353;82;21016;-77
2021/11/09 08:48:46;;;;;;;19.75;11.05;;;;;;;8.45;83.57;101594.81;2121591;82;21390;-75
2021/11/09 08:51:49;;;;;;;31.70;12.65;;;;;;;8.43;83.25;101597.56;2159324;81;21058;-75
2021/11/09 09:04:11;;;;;;;28.62;11.68;;;;;;;8.51;83.13;101611.53;2139971;81;21066;-79
2021/11/09 09:04:26;;;;;;;25.35;11.28;;;;;;;8.55;83.16;101617.42;2155754;81;21057;-77
2021/11/09 09:07:29;;;;;;;23.77;11.05;;;;;;;8.65;83.14;101625.03;2148463;81;21015;-78
2021/11/09 09:10:30;;;;;;;23.35;10.53;;;;;;;8.70;83.08;101626.83;2147226;81;21032;-77
2021/11/09 09:13:32;;;;;;;20.12;10.43;;;;;;;8.69;82.66;101628.63;2157460;81;21033;-77
2021/11/09 09:16:35;;;;;;;19.85;10.28;;;;;;;8.67;82.62;101632.35;2152005;81;21058;-77
2021/11/09 09:19:42;;;;;;;15.23;10.00;;;;;;;8.64;82.28;101634.75;2153779;81;21064;-75
2021/11/09 09:22:44;;;;;;;21.50;10.15;;;;;;;8.62;82.25;101633.21;2120327;82;21027;-79
2021/11/09 09:25:49;;;;;;;22.27;9.98;;;;;;;8.62;82.17;101643.80;2131883;82;21558;-76
2021/11/09 09:55:14;;;;;;;16.70;9.40;;;;;;;8.65;81.75;101662.92;2121373;82;21450;-75
2021/11/09 09:58:11;;;;;;;15.45;9.15;;;;;;;8.66;81.71;101662.44;2155671;80;21530;-77
2021/11/09 10:01:12;;;;;;;14.05;9.03;;;;;;;8.65;81.67;101665.56;2155066;80;21008;-78
2021/11/09 10:04:34;;;;;;;16.50;9.45;;;;;;;8.63;81.53;101665.31;2115898;82;21053;-79
2021/11/09 10:07:51;;;;;;;19.10;9.38;;;;;;;8.64;81.73;101665.18;2113527;82;21058;-77
2021/11/09 10:10:49;;;;;;;20.00;11.40;;;;;;;8.63;81.67;101677.22;2139371;82;21545;-79
2021/11/09 10:13:50;;;;;;;18.77;10.03;;;;;;;8.65;81.61;101677.47;2141084;81;20988;-78
2021/11/09 10:16:57;;;;;;;15.15;9.65;;;;;;;8.60;81.39;101676.13;2139059;82;21062;-80
2021/11/09 10:20:10;;;;;;;17.30;8.80;;;;;;;8.55;81.48;101679.60;2146553;81;21043;-77
2021/11/09 10:23:21;;;;;;;15.93;9.40;;;;;;;8.55;81.57;101679.11;2148616;81;21094;-79
2021/11/09 10:26:27;;;;;;;;;;;;;;;8.58;81.50;101678.88;2161621;81;21734;-78
2021/11/09 10:29:40;;;;;;;19.25;10.03;;;;;;;8.50;81.33;101682.58;2157364;81;20128;-79
2021/11/09 10:32:42;;;;;;;19.00;10.35;;;;;;;8.53;81.60;101679.25;2154558;81;21617;-80
2021/11/09 10:35:44;;;;;;;15.63;9.75;;;;;;;8.58;81.53;101686.81;2155204;81;21536;-78
2021/11/09 10:38:47;;;;;;;21.33;9.95;;;;;;;8.60;81.50;101692.84;2152794;81;21683;-77
2021/11/09 10:42:15;;;;;;;20.43;10.40;;;;;;;8.73;81.69;101698.07;2155121;81;20993;-77
2021/11/09 10:45:22;;;;;;;16.45;9.63;;;;;;;8.81;81.43;101699.62;2153128;81;21025;-77
2021/11/09 10:48:24;;;;;;;16.27;8.90;;;;;;;8.91;81.29;101702.44;2150772;81;21509;-80
2021/11/09 10:51:52;;;;;;;15.43;8.90;;;;;;;8.96;80.91;101689.69;2157338;81;21575;-79
2021/11/09 10:55:14;;;;;;;17.55;10.25;;;;;;;9.01;80.97;101694.16;2144753;81;21057;-78
2021/11/09 10:58:23;;;;;;;14.38;9.15;;;;;;;9.05;80.71;101701.37;2115945;82;21026;-78
2021/11/09 11:04:33;;;;;;;14.23;8.33;;;;;;;9.09;80.05;101704.14;2156916;81;21059;-79
2021/11/09 11:07:40;;;;;;;15.30;8.75;;;;;;;9.05;80.21;101700.89;2156961;81;21030;-77
2021/11/09 11:10:41;;;;;;;15.68;8.43;;;;;;;9.11;80.05;101703.06;2146152;81;21010;-79
2021/11/09 11:13:42;;;;;;;17.20;7.80;;;;;;;9.20;80.00;101698.85;2118154;82;21066;-80
2021/11/09 11:16:49;;;;;;;10.60;7.30;;;;;;;9.27;79.83;101701.40;2149501;81;20955;-79
2021/11/09 11:19:54;;;;;;;12.88;7.05;;;;;;;9.31;79.84;101704.64;2146729;81;21161;-79
2021/11/09 11:22:56;;;;;;;12.30;6.50;;;;;;;9.35;79.91;101699.00;2157247;81;21100;-81
2021/11/09 11:25:59;;;;;;;8.95;5.53;;;;;;;9.47;79.82;101701.64;2148624;81;21480;-77
2021/11/09 11:29:03;;;;;;;11.15;6.20;;;;;;;9.58;79.54;101700.31;2157516;81;21034;-76
2021/11/09 11:32:10;;;;;;;11.30;6.33;;;;;;;9.63;79.25;101705.61;2153175;81;21021;-76
2021/11/09 11:35:13;;;;;;;15.68;6.67;;;;;;;9.75;79.11;101701.13;2147930;81;20999;-75
2021/11/09 11:38:18;;;;;;;11.60;6.62;;;;;;;9.81;78.59;101697.98;2149340;81;21515;-76
2021/11/09 11:41:23;;;;;;;14.18;8.53;;;;;;;9.76;78.00;101701.48;2116866;81;21027;-78
2021/11/09 11:44:28;;;;;;;10.23;6.22;;;;;;;9.71;78.07;101698.84;2143439;82;21035;-79
2021/11/09 11:47:29;;;;;;;9.43;5.22;;;;;;;9.76;78.19;101703.30;2142378;82;21005;-77
2021/11/09 11:50:41;;;;;;;9.85;5.20;;;;;;;9.78;77.92;101700.05;2193099;79;20986;-79
2021/11/09 11:53:44;;;;;;;8.55;4.92;;;;;;;9.76;77.75;101696.67;2194474;79;21072;-79
2021/11/09 11:56:50;;;;;;;8.50;5.33;;;;;;;9.77;77.92;101693.05;2202481;79;21066;-77
2021/11/09 11:59:53;;;;;;;12.47;7.22;;;;;;;9.76;77.63;101694.02;2205813;78;21437;-78
2021/11/09 12:02:56;;;;;;;10.45;5.30;;;;;;;9.78;77.69;101692.09;2204865;79;21515;-76
2021/11/09 12:06:17;;;;;;;12.63;5.78;;;;;;;9.76;77.22;101693.53;2204156;78;21041;-79
2021/11/09 12:09:32;;;;;;;8.63;5.37;;;;;;;9.71;77.17;101696.19;2197656;79;20992;-79
2021/11/09 12:12:34;;;;;;;10.28;5.55;;;;;;;9.66;77.36;101689.95;2209641;79;20990;-76
2021/11/09 12:16:01;;;;;;;11.93;6.15;;;;;;;9.63;77.37;101694.17;2197534;79;21074;-76
2021/11/09 12:19:02;;;;;;;14.85;5.83;;;;;;;9.56;77.18;101691.64;2201321;79;21056;-77
2021/11/09 12:22:22;;;;;;;11.90;6.50;;;;;;;9.61;77.46;101696.94;2207198;79;21005;-80
2021/11/09 12:25:37;;;;;;;10.63;5.15;;;;;;;9.63;77.42;101692.84;2112271;82;21072;-78
2021/11/09 12:28:39;;;;;;;10.55;5.33;;;;;;;9.59;76.69;101691.39;2121366;82;20999;-80
2021/11/09 12:31:41;;;;;;;8.98;5.20;;;;;;;9.60;76.92;101687.30;2142121;82;21171;-77
2021/11/09 12:35:06;;;;;;;10.75;5.10;;;;;;;9.63;76.59;101683.58;2200328;79;21002;-74
2021/11/09 12:38:18;;;;;;;9.68;6.22;;;;;;;9.57;76.29;101685.36;2198077;78;20998;-77
2021/11/09 12:41:32;;;;;;;12.45;6.25;;;;;;;9.50;76.28;101680.20;2128118;81;21053;-78
2021/11/09 12:44:33;;;;;;;7.78;4.90;;;;;;;9.48;76.41;101684.77;2113913;82;21020;-77
2021/11/09 12:47:35;;;;;;;11.03;5.37;;;;;;;9.47;76.46;101679.96;2136290;82;20972;-76
2021/11/09 12:50:41;;;;;;;7.25;4.22;;;;;;;9.49;76.27;101675.84;2201050;79;20966;-80
2021/11/09 12:53:48;;;;;;;9.88;5.12;;;;;;;9.47;75.82;101676.48;2203195;78;21493;-79
2021/11/09 12:56:58;;;;;;;7.80;4.75;;;;;;;9.46;75.81;101679.61;2192702;79;21532;-80
2021/11/09 13:00:08;;;;;;;9.30;5.30;;;;;;;9.48;75.67;101676.83;2155551;80;21513;-77
2021/11/09 13:03:04;;;;;;;12.68;6.35;;;;;;;9.56;76.05;101675.73;2120721;82;21050;-76
2021/11/09 13:06:17;;;;;;;12.28;5.92;;;;;;;9.57;75.70;101673.44;2121698;82;21053;-78
2021/11/09 13:09:20;;;;;;;12.85;6.92;;;;;;;9.59;75.71;101672.84;2134566;82;21027;-79
2021/11/09 13:12:30;;;;;;;11.90;5.75;;;;;;;9.53;75.16;101668.03;2118406;82;21030;-77
2021/11/09 13:15:32;;;;;;;9.70;4.45;;;;;;;9.49;75.20;101669.22;2144442;82;21494;-77
2021/11/09 13:18:33;;;;;;;12.07;5.15;;;;;;;9.42;74.97;101668.39;2142434;82;21014;-78
2021/11/09 13:21:37;;;;;;;11.30;5.35;;;;;;;9.39;74.93;101668.64;2143968;82;21002;-78
2021/11/09 13:24:44;;;;;;;14.10;6.25;;;;;;;9.40;75.28;101665.05;2158679;81;20993;-77
2021/11/09 13:27:48;;;;;;;14.58;7.25;;;;;;;9.40;75.12;101659.75;2136939;81;20967;-78
2021/11/09 13:31:01;;;;;;;11.65;6.72;;;;;;;9.41;74.94;101664.06;2152484;81;21017;-77
2021/11/09 13:34:05;;;;;;;8.93;5.83;;;;;;;9.41;75.07;101664.55;2152709;81;20994;-78
2021/11/09 13:37:07;;;;;;;10.82;5.20;;;;;;;9.43;75.19;101667.91;2155061;81;21489;-77
2021/11/09 13:40:10;;;;;;;11.33;5.58;;;;;;;9.43;75.15;101672.75;2152828;81;21552;-73
2021/11/09 13:43:16;;;;;;;11.10;5.42;;;;;;;9.39;74.58;101668.64;2153718;81;21049;-77
2021/11/09 13:46:31;;;;;;;11.10;5.50;;;;;;;9.31;74.84;101664.42;2120717;81;21069;-75
2021/11/09 13:49:32;;;;;;;11.33;5.47;;;;;;;9.27;74.84;101658.19;2120337;82;21061;-75
2021/11/09 13:52:44;;;;;;;9.53;5.20;;;;;;;9.24;75.03;101658.43;2126118;82;21055;-77
2021/11/09 13:55:46;;;;;;;11.20;4.95;;;;;;;9.23;75.19;101665.50;2116178;82;20990;-78
2021/11/09 13:59:01;;;;;;;8.98;4.72;;;;;;;9.27;75.21;101668.29;2138234;81;21493;-78
2021/11/09 14:02:22;;;;;;;8.63;4.30;;;;;;;9.33;75.29;101663.83;2147437;81;21079;-79
2021/11/09 14:05:37;;;;;;;10.63;3.75;;;;;;;9.37;75.03;101661.28;2150606;81;21058;-78
2021/11/09 14:12:00;;;;;;;11.03;5.53;;;;;;;9.41;74.65;101667.20;2145580;81;21065;-77
2021/11/09 14:17:58;;;;;;;12.63;4.67;;;;;;;9.41;74.79;101662.75;2147886;81;21039;-76
2021/11/09 14:21:04;;;;;;;20.52;4.37;;;;;;;9.41;74.71;101664.06;2151838;81;21469;-77
2021/11/09 14:24:14;;;;;;;9.55;4.45;;;;;;;9.36;74.51;101658.77;2153006;81;21006;-76
2021/11/09 14:27:16;;;;;;;5.95;4.42;;;;;;;9.31;74.42;101657.80;2153284;81;21017;-79
2021/11/09 14:30:25;;;;;;;8.45;3.92;;;;;;;9.27;74.73;101656.38;2153642;81;21057;-78
2021/11/09 14:33:27;;;;;;;7.47;4.05;;;;;;;9.23;74.69;101660.20;2149158;81;21033;-78
2021/11/09 14:36:34;;;;;;;10.90;4.33;;;;;;;9.18;74.44;101654.45;2143983;81;20990;-77
2021/11/09 14:39:41;;;;;;;11.35;4.35;;;;;;;9.15;74.51;101657.31;2157969;81;20963;-79
2021/11/09 14:46:05;;;;;;;7.50;4.25;;;;;;;9.05;74.62;101661.66;2132664;82;21033;-77
2021/11/09 14:49:11;;;;;;;9.68;4.37;;;;;;;9.01;74.67;101657.55;2157979;81;21042;-77
2021/11/09 14:52:19;;;;;;;8.10;4.83;;;;;;;8.99;74.79;101659.01;2145972;81;20994;-77
2021/11/09 14:55:27;;;;;;;9.10;5.12;;;;;;;8.98;74.78;101660.82;2153655;81;21111;-78
2021/11/09 14:58:43;;;;;;;8.78;4.47;;;;;;;8.95;74.77;101657.55;2154142;81;21061;-76
2021/11/09 15:02:04;;;;;;;8.85;4.45;;;;;;;8.88;74.79;101661.64;2152927;81;20988;-77
2021/11/09 15:05:14;;;;;;;8.33;4.22;;;;;;;8.80;74.53;101659.58;2147038;81;21006;-77
2021/11/09 15:08:25;;;;;;;11.18;5.45;;;;;;;8.66;74.37;101665.92;2150201;81;21482;-77
2021/11/09 15:11:33;;;;;;;10.85;5.42;;;;;;;8.53;74.49;101666.02;2147446;81;21049;-78
2021/11/09 15:28:01;;;;;;;11.40;6.70;;;;;;;8.07;75.08;101688.38;2148255;81;21064;-78
2021/11/09 15:37:22;;;;;;;13.58;6.25;;;;;;;7.91;75.28;101684.67;2157098;81;21062;-78
2021/11/09 15:40:20;;;;;;;12.40;6.50;;;;;;;7.88;75.27;101691.99;2128038;81;21025;-76
2021/11/09 15:43:20;;;;;;;10.75;5.90;;;;;;;7.74;75.15;101691.66;2151443;81;21157;-79
2021/11/09 15:46:22;;;;;;;14.58;9.08;;;;;;;7.66;75.28;101697.97;2153019;81;20998;-78
2021/11/09 15:49:26;;;;;;;20.30;11.05;;;;;;;7.57;75.52;101706.07;2154442;80;21045;-76
2021/11/09 15:52:29;;;;;;;17.95;7.97;;;;;;;7.49;75.55;101701.35;2134693;82;21005;-77
2021/11/09 15:55:31;;;;;;;15.35;7.35;;;;;;;7.43;75.60;101703.08;2140052;82;21469;-77
2021/11/09 15:58:33;;;;;;;14.75;7.87;;;;;;;7.39;75.71;101701.62;2145705;81;21050;-75
2021/11/09 16:01:37;;;;;;;16.97;9.85;;;;;;;7.33;75.64;101707.34;2134572;82;21024;-78
2021/11/09 16:04:41;;;;;;;14.68;9.43;;;;;;;7.15;75.72;101709.44;2150925;81;21606;-76
2021/11/09 16:07:43;;;;;;;14.80;9.35;;;;;;;7.08;76.04;101711.66;2132793;82;21697;-79
2021/11/09 16:10:47;;;;;;;17.50;9.75;;;;;;;7.08;76.24;101709.50;2117977;82;22399;-78
2021/11/09 16:13:49;;;;;;;14.33;8.33;;;;;;;7.08;76.28;101706.38;2152560;81;21505;-78
2021/11/09 16:16:50;;;;;;;17.95;8.28;;;;;;;7.04;76.22;101711.52;2115312;82;21640;-77
2021/11/09 16:19:52;;;;;;;13.40;8.08;;;;;;;6.93;76.07;101716.20;2123116;82;21033;-78
2021/11/09 16:22:55;;;;;;;16.70;8.98;;;;;;;6.75;76.14;101712.16;2148300;81;20979;-78
2021/11/09 16:25:57;;;;;;;13.55;7.58;;;;;;;6.64;76.29;101712.02;2118072;82;21070;-77
2021/11/09 16:28:58;;;;;;;14.25;8.70;;;;;;;6.53;76.34;101715.84;2152243;81;21009;-77
2021/11/09 16:32:00;;;;;;;17.60;9.45;;;;;;;6.45;76.48;101709.30;2113349;82;21015;-78
2021/11/09 16:35:11;;;;;;;18.23;10.08;;;;;;;6.36;76.48;101710.37;2131546;82;21054;-79
2021/11/09 16:38:15;;;;;;;16.97;9.67;;;;;;;6.28;76.63;101717.00;2153449;82;21064;-78
2021/11/09 16:41:20;;;;;;;15.45;9.33;;;;;;;6.19;76.82;101720.22;2153765;82;21380;-76
2021/11/09 16:44:19;;;;;;;14.85;9.25;;;;;;;6.08;77.05;101720.54;2147758;82;20959;-78
2021/11/09 16:47:21;;;;;;;17.48;10.23;;;;;;;5.97;77.19;101718.14;2150802;81;21042;-78